sensor_id;sensor_type;location;lat;lon;timestamp;pressure;altitude;pressure_sealevel;temperature;humidity
19624;BME280;9959;49.798;9.928;2023-05-11T00:01:45;99384.16;;;11.29;96.95
19624;BME280;9959;49.798;9.928;2023-05-11T00:04:12;99375.34;;;11.40;94.86
19624;BME280;9959;49.798;9.928;2023-05-11T00:06:39;99380.44;;;11.30;95.64
19624;BME280;9959;49.798;9.928;2023-05-11T00:09:06;99382.13;;;11.24;96.00
19624;BME280;9959;49.798;9.928;2023-05-11T00:11:34;99377.56;;;11.25;95.69
19624;BME280;9959;49.798;9.928;2023-05-11T00:14:02;99376.63;;;11.37;94.23
19624;BME280;9959;49.798;9.928;2023-05-11T00:16:28;99379.59;;;11.29;94.17
19624;BME280;9959;49.798;9.928;2023-05-11T00:18:55;99376.53;;;11.26;95.42
19624;BME280;9959;49.798;9.928;2023-05-11T00:21:22;99376.38;;;11.21;95.89
19624;BME280;9959;49.798;9.928;2023-05-11T00:23:49;99366.03;;;11.17;96.85
19624;BME280;9959;49.798;9.928;2023-05-11T00:26:16;99370.69;;;11.29;96.70
19624;BME280;9959;49.798;9.928;2023-05-11T00:28:43;99368.56;;;11.12;99.14
19624;BME280;9959;49.798;9.928;2023-05-11T00:31:10;99358.28;;;11.03;100.00
19624;BME280;9959;49.798;9.928;2023-05-11T00:33:37;99365.72;;;11.07;99.56
19624;BME280;9959;49.798;9.928;2023-05-11T00:36:04;99364.34;;;10.98;100.00
19624;BME280;9959;49.798;9.928;2023-05-11T00:38:31;99357.50;;;10.96;100.00
19624;BME280;9959;49.798;9.928;2023-05-11T00:40:58;99362.09;;;10.95;100.00
19624;BME280;9959;49.798;9.928;2023-05-11T00:43:25;99364.47;;;10.85;100.00
19624;BME280;9959;49.798;9.928;2023-05-11T00:45:52;99358.13;;;10.73;100.00
19624;BME280;9959;49.798;9.928;2023-05-11T00:48:19;99364.34;;;10.73;100.00
19624;BME280;9959;49.798;9.928;2023-05-11T00:50:45;99365.81;;;10.69;100.00
19624;BME280;9959;49.798;9.928;2023-05-11T00:53:13;99365.59;;;10.71;100.00
19624;BME280;9959;49.798;9.928;2023-05-11T00:55:40;99361.56;;;10.62;100.00
19624;BME280;9959;49.798;9.928;2023-05-11T00:58:07;99363.22;;;10.63;100.00
19624;BME280;9959;49.798;9.928;2023-05-11T01:00:34;99366.50;;;10.65;100.00
19624;BME280;9959;49.798;9.928;2023-05-11T01:03:02;99366.03;;;10.68;100.00
19624;BME280;9959;49.798;9.928;2023-05-11T01:05:43;99368.53;;;10.69;100.00
19624;BME280;9959;49.798;9.928;2023-05-11T01:08:17;99376.06;;;10.61;100.00
19624;BME280;9959;49.798;9.928;2023-05-11T01:10:51;99373.75;;;10.64;100.00
19624;BME280;9959;49.798;9.928;2023-05-11T01:13:30;99371.13;;;10.58;100.00
19624;BME280;9959;49.798;9.928;2023-05-11T01:16:02;99368.38;;;10.64;100.00
19624;BME280;9959;49.798;9.928;2023-05-11T01:18:41;99371.44;;;10.68;100.00
19624;BME280;9959;49.798;9.928;2023-05-11T01:21:10;99368.19;;;10.59;100.00
19624;BME280;9959;49.798;9.928;2023-05-11T01:26:28;99369.47;;;10.57;100.00
19624;BME280;9959;49.798;9.928;2023-05-11T01:32:13;99362.78;;;10.66;100.00
19624;BME280;9959;49.798;9.928;2023-05-11T01:34:42;99356.16;;;10.62;100.00
19624;BME280;9959;49.798;9.928;2023-05-11T01:37:14;99361.13;;;10.65;100.00
19624;BME280;9959;49.798;9.928;2023-05-11T01:39:49;99358.88;;;10.62;100.00
19624;BME280;9959;49.798;9.928;2023-05-11T01:42:20;99360.38;;;10.51;100.00
19624;BME280;9959;49.798;9.928;2023-05-11T01:44:52;99360.34;;;10.58;100.00
19624;BME280;9959;49.798;9.928;2023-05-11T01:47:24;99365.72;;;10.58;100.00
19624;BME280;9959;49.798;9.928;2023-05-11T01:49:53;99366.78;;;10.57;100.00
19624;BME280;9959;49.798;9.928;2023-05-11T01:52:22;99363.22;;;10.63;100.00
19624;BME280;9959;49.798;9.928;2023-05-11T01:54:50;99361.59;;;10.55;100.00
19624;BME280;9959;49.798;9.928;2023-05-11T01:57:19;99366.03;;;10.68;100.00
19624;BME280;9959;49.798;9.928;2023-05-11T01:59:48;99359.59;;;10.69;100.00
19624;BME280;9959;49.798;9.928;2023-05-11T02:02:17;99367.44;;;10.77;100.00
19624;BME280;9959;49.798;9.928;2023-05-11T02:04:44;99361.56;;;10.62;100.00
19624;BME280;9959;49.798;9.928;2023-05-11T02:07:13;99358.44;;;10.65;100.00
19624;BME280;9959;49.798;9.928;2023-05-11T02:09:40;99357.69;;;10.76;100.00
19624;BME280;9959;49.798;9.928;2023-05-11T02:12:08;99367.25;;;10.72;100.00
19624;BME280;9959;49.798;9.928;2023-05-11T02:14:36;99366.78;;;10.57;100.00
19624;BME280;9959;49.798;9.928;2023-05-11T02:17:04;99363.34;;;10.68;100.00
19624;BME280;9959;49.798;9.928;2023-05-11T02:19:36;99364.84;;;10.64;100.00
19624;BME280;9959;49.798;9.928;2023-05-11T02:22:04;99363.13;;;10.69;100.00
19624;BME280;9959;49.798;9.928;2023-05-11T02:24:32;99364.03;;;10.63;100.00
19624;BME280;9959;49.798;9.928;2023-05-11T02:27:00;99370.84;;;10.66;100.00
19624;BME280;9959;49.798;9.928;2023-05-11T02:29:28;99366.03;;;10.68;100.00
19624;BME280;9959;49.798;9.928;2023-05-11T02:31:56;99362.78;;;10.66;100.00
19624;BME280;9959;49.798;9.928;2023-05-11T02:34:28;99362.38;;;10.62;100.00
19624;BME280;9959;49.798;9.928;2023-05-11T02:36:59;99362.16;;;10.64;100.00
19624;BME280;9959;49.798;9.928;2023-05-11T02:39:32;99360.34;;;10.58;100.00
19624;BME280;9959;49.798;9.928;2023-05-11T02:42:10;99358.97;;;10.42;100.00
19624;BME280;9959;49.798;9.928;2023-05-11T02:44:44;99360.00;;;10.47;100.00
19624;BME280;9959;49.798;9.928;2023-05-11T02:47:17;99353.78;;;10.47;100.00
19624;BME280;9959;49.798;9.928;2023-05-11T02:49:46;99355.03;;;10.44;100.00
19624;BME280;9959;49.798;9.928;2023-05-11T02:52:20;99350.47;;;10.45;100.00
19624;BME280;9959;49.798;9.928;2023-05-11T02:54:49;99357.13;;;10.42;100.00
19624;BME280;9959;49.798;9.928;2023-05-11T02:57:17;99353.22;;;10.38;100.00
19624;BME280;9959;49.798;9.928;2023-05-11T02:59:45;99352.13;;;10.46;100.00
19624;BME280;9959;49.798;9.928;2023-05-11T03:02:12;99350.38;;;10.58;100.00
19624;BME280;9959;49.798;9.928;2023-05-11T03:04:39;99350.44;;;10.51;100.00
19624;BME280;9959;49.798;9.928;2023-05-11T03:07:06;99347.38;;;10.41;100.00
19624;BME280;9959;49.798;9.928;2023-05-11T03:09:33;99354.00;;;10.45;100.00
19624;BME280;9959;49.798;9.928;2023-05-11T03:12:02;99357.44;;;10.59;100.00
19624;BME280;9959;49.798;9.928;2023-05-11T03:14:32;99346.25;;;10.56;100.00
19624;BME280;9959;49.798;9.928;2023-05-11T03:17:00;99359.78;;;10.49;100.00
19624;BME280;9959;49.798;9.928;2023-05-11T03:19:28;99353.72;;;10.54;100.00
19624;BME280;9959;49.798;9.928;2023-05-11T03:21:57;99350.00;;;10.55;100.00
19624;BME280;9959;49.798;9.928;2023-05-11T03:24:25;99352.91;;;10.53;100.00
19624;BME280;9959;49.798;9.928;2023-05-11T03:26:55;99352.91;;;10.53;100.00
19624;BME280;9959;49.798;9.928;2023-05-11T03:29:24;99345.03;;;10.51;100.00
19624;BME280;9959;49.798;9.928;2023-05-11T03:31:53;99351.50;;;10.44;100.00
19624;BME280;9959;49.798;9.928;2023-05-11T03:34:20;99352.13;;;10.46;100.00
19624;BME280;9959;49.798;9.928;2023-05-11T03:36:48;99351.66;;;10.56;100.00
19624;BME280;9959;49.798;9.928;2023-05-11T03:39:16;99350.03;;;10.48;100.00
19624;BME280;9959;49.798;9.928;2023-05-11T03:41:44;99355.78;;;10.58;100.00
19624;BME280;9959;49.798;9.928;2023-05-11T03:44:16;99346.91;;;10.51;100.00
19624;BME280;9959;49.798;9.928;2023-05-11T03:46:47;99350.16;;;10.60;100.00
19624;BME280;9959;49.798;9.928;2023-05-11T03:49:16;99355.72;;;10.65;100.00
19624;BME280;9959;49.798;9.928;2023-05-11T03:51:44;99350.88;;;10.48;100.00
19624;BME280;9959;49.798;9.928;2023-05-11T03:54:11;99355.81;;;10.51;100.00
19624;BME280;9959;49.798;9.928;2023-05-11T03:56:39;99351.88;;;10.54;100.00
19624;BME280;9959;49.798;9.928;2023-05-11T03:59:06;99357.84;;;10.56;100.00
19624;BME280;9959;49.798;9.928;2023-05-11T04:01:34;99352.25;;;10.58;100.00
19624;BME280;9959;49.798;9.928;2023-05-11T04:04:01;99346.88;;;10.58;100.00
19624;BME280;9959;49.798;9.928;2023-05-11T04:06:27;99347.91;;;10.57;100.00
19624;BME280;9959;49.798;9.928;2023-05-11T04:08:54;99342.97;;;10.54;100.00
19624;BME280;9959;49.798;9.928;2023-05-11T04:11:21;99342.84;;;10.67;100.00
19624;BME280;9959;49.798;9.928;2023-05-11T04:13:48;99344.56;;;10.61;100.00
19624;BME280;9959;49.798;9.928;2023-05-11T04:16:15;99345.91;;;10.70;100.00
19624;BME280;9959;49.798;9.928;2023-05-11T04:18:42;99346.91;;;10.76;98.62
19624;BME280;9959;49.798;9.928;2023-05-11T04:21:09;99352.44;;;10.63;98.83
19624;BME280;9959;49.798;9.928;2023-05-11T04:23:36;99350.69;;;10.68;98.29
19624;BME280;9959;49.798;9.928;2023-05-11T04:26:03;99356.91;;;10.69;98.36
19624;BME280;9959;49.798;9.928;2023-05-11T04:28:30;99356.47;;;10.72;97.20
19624;BME280;9959;49.798;9.928;2023-05-11T04:30:57;99355.59;;;10.78;96.57
19624;BME280;9959;49.798;9.928;2023-05-11T04:33:24;99356.66;;;10.77;97.02
19624;BME280;9959;49.798;9.928;2023-05-11T04:35:52;99359.25;;;10.90;96.67
19624;BME280;9959;49.798;9.928;2023-05-11T04:38:20;99355.03;;;10.94;97.32
19624;BME280;9959;49.798;9.928;2023-05-11T04:40:47;99359.09;;;10.85;97.06
19624;BME280;9959;49.798;9.928;2023-05-11T04:43:16;99368.38;;;10.89;97.51
19624;BME280;9959;49.798;9.928;2023-05-11T04:45:50;99370.34;;;11.00;97.99
19624;BME280;9959;49.798;9.928;2023-05-11T04:48:17;99369.28;;;11.01;97.15
19624;BME280;9959;49.798;9.928;2023-05-11T04:50:46;99369.72;;;10.98;98.07
19624;BME280;9959;49.798;9.928;2023-05-11T04:53:13;99370.66;;;11.10;97.69
19624;BME280;9959;49.798;9.928;2023-05-11T04:55:40;99362.81;;;11.09;96.78
19624;BME280;9959;49.798;9.928;2023-05-11T04:58:07;99363.19;;;11.12;97.01
19624;BME280;9959;49.798;9.928;2023-05-11T05:00:33;99362.31;;;11.18;96.21
19624;BME280;9959;49.798;9.928;2023-05-11T05:03:02;99370.13;;;11.45;95.74
19624;BME280;9959;49.798;9.928;2023-05-11T05:05:29;99366.44;;;11.39;96.33
19624;BME280;9959;49.798;9.928;2023-05-11T05:07:56;99372.28;;;11.54;93.84
19624;BME280;9959;49.798;9.928;2023-05-11T05:10:24;99368.75;;;11.36;94.61
19624;BME280;9959;49.798;9.928;2023-05-11T05:12:51;99370.69;;;11.29;94.69
19624;BME280;9959;49.798;9.928;2023-05-11T05:15:18;99370.34;;;11.43;93.72
19624;BME280;9959;49.798;9.928;2023-05-11T05:17:45;99375.63;;;11.50;94.19
19624;BME280;9959;49.798;9.928;2023-05-11T05:20:12;99378.94;;;11.52;93.31
19624;BME280;9959;49.798;9.928;2023-05-11T05:22:39;99380.16;;;11.56;94.16
19624;BME280;9959;49.798;9.928;2023-05-11T05:25:07;99391.63;;;11.70;93.90
19624;BME280;9959;49.798;9.928;2023-05-11T05:27:34;99391.75;;;11.57;93.12
19624;BME280;9959;49.798;9.928;2023-05-11T05:30:01;99390.88;;;11.63;92.64
19624;BME280;9959;49.798;9.928;2023-05-11T05:32:28;99390.78;;;11.69;91.32
19624;BME280;9959;49.798;9.928;2023-05-11T05:34:54;99379.69;;;11.59;91.72
19624;BME280;9959;49.798;9.928;2023-05-11T05:37:21;99386.44;;;11.50;92.80
19624;BME280;9959;49.798;9.928;2023-05-11T05:39:48;99386.28;;;11.63;91.78
19624;BME280;9959;49.798;9.928;2023-05-11T05:42:15;99394.94;;;11.72;91.88
19624;BME280;9959;49.798;9.928;2023-05-11T05:44:42;99395.47;;;11.99;90.44
19624;BME280;9959;49.798;9.928;2023-05-11T05:47:08;99393.94;;;11.66;91.30
19624;BME280;9959;49.798;9.928;2023-05-11T05:49:35;99393.97;;;11.84;90.27
19624;BME280;9959;49.798;9.928;2023-05-11T05:52:02;99385.72;;;11.98;88.45
19624;BME280;9959;49.798;9.928;2023-05-11T05:54:29;99391.06;;;12.16;89.01
19624;BME280;9959;49.798;9.928;2023-05-11T05:56:56;99388.38;;;12.16;89.27
19624;BME280;9959;49.798;9.928;2023-05-11T05:59:23;99393.47;;;12.06;88.23
19624;BME280;9959;49.798;9.928;2023-05-11T06:01:50;99392.75;;;11.80;90.24
19624;BME280;9959;49.798;9.928;2023-05-11T06:04:17;99401.91;;;11.98;89.93
19624;BME280;9959;49.798;9.928;2023-05-11T06:06:44;99405.34;;;11.86;90.58
19624;BME280;9959;49.798;9.928;2023-05-11T06:09:12;99404.06;;;12.07;89.43
19624;BME280;9959;49.798;9.928;2023-05-11T06:11:39;99407.75;;;11.95;90.04
19624;BME280;9959;49.798;9.928;2023-05-11T06:14:06;99417.88;;;11.99;90.04
19624;BME280;9959;49.798;9.928;2023-05-11T06:16:33;99413.13;;;12.13;90.14
19624;BME280;9959;49.798;9.928;2023-05-11T06:19:00;99406.59;;;12.50;87.61
19624;BME280;9959;49.798;9.928;2023-05-11T06:21:27;99411.56;;;12.35;87.78
19624;BME280;9959;49.798;9.928;2023-05-11T06:23:54;99417.56;;;12.37;88.01
19624;BME280;9959;49.798;9.928;2023-05-11T06:26:20;99415.09;;;12.66;86.90
19624;BME280;9959;49.798;9.928;2023-05-11T06:28:50;99405.13;;;12.78;85.76
19624;BME280;9959;49.798;9.928;2023-05-11T06:31:18;99405.50;;;12.81;86.07
19624;BME280;9959;49.798;9.928;2023-05-11T06:33:45;99409.09;;;12.64;85.58
19624;BME280;9959;49.798;9.928;2023-05-11T06:36:12;99403.41;;;12.83;85.55
19624;BME280;9959;49.798;9.928;2023-05-11T06:38:38;99407.16;;;12.94;85.04
19624;BME280;9959;49.798;9.928;2023-05-11T06:41:05;99403.13;;;12.73;83.92
19624;BME280;9959;49.798;9.928;2023-05-11T06:43:33;99396.81;;;12.91;82.83
19624;BME280;9959;49.798;9.928;2023-05-11T06:45:59;99397.34;;;12.70;84.59
19624;BME280;9959;49.798;9.928;2023-05-11T06:48:26;99402.06;;;12.86;83.17
19624;BME280;9959;49.798;9.928;2023-05-11T06:50:55;99405.19;;;12.60;84.54
19624;BME280;9959;49.798;9.928;2023-05-11T06:53:22;99410.69;;;12.83;81.97
19624;BME280;9959;49.798;9.928;2023-05-11T06:55:49;99405.19;;;13.01;82.01
19624;BME280;9959;49.798;9.928;2023-05-11T06:58:16;99407.97;;;12.83;82.90
19624;BME280;9959;49.798;9.928;2023-05-11T07:00:46;99404.13;;;13.02;83.23
19624;BME280;9959;49.798;9.928;2023-05-11T07:03:12;99410.03;;;13.23;81.62
19624;BME280;9959;49.798;9.928;2023-05-11T07:05:39;99412.38;;;12.66;83.63
19624;BME280;9959;49.798;9.928;2023-05-11T07:08:06;99406.59;;;13.04;82.82
19624;BME280;9959;49.798;9.928;2023-05-11T07:10:33;99410.81;;;13.00;82.94
19624;BME280;9959;49.798;9.928;2023-05-11T07:13:00;99416.00;;;13.01;83.19
19624;BME280;9959;49.798;9.928;2023-05-11T07:15:27;99409.50;;;12.91;82.79
19624;BME280;9959;49.798;9.928;2023-05-11T07:17:53;99411.28;;;12.97;82.03
19624;BME280;9959;49.798;9.928;2023-05-11T07:20:20;99415.13;;;12.77;82.81
19624;BME280;9959;49.798;9.928;2023-05-11T07:22:47;99420.00;;;13.10;81.45
19624;BME280;9959;49.798;9.928;2023-05-11T07:25:14;99413.72;;;12.75;82.23
19624;BME280;9959;49.798;9.928;2023-05-11T07:27:41;99414.25;;;13.07;81.34
19624;BME280;9959;49.798;9.928;2023-05-11T07:30:08;99417.63;;;13.02;80.84
19624;BME280;9959;49.798;9.928;2023-05-11T07:32:35;99421.59;;;12.88;81.11
19624;BME280;9959;49.798;9.928;2023-05-11T07:35:02;99422.41;;;12.77;81.87
19624;BME280;9959;49.798;9.928;2023-05-11T07:37:29;99422.09;;;12.97;81.44
19624;BME280;9959;49.798;9.928;2023-05-11T07:39:55;99423.03;;;13.14;80.82
19624;BME280;9959;49.798;9.928;2023-05-11T07:42:22;99428.03;;;13.17;81.03
19624;BME280;9959;49.798;9.928;2023-05-11T07:44:49;99433.38;;;12.82;81.62
19624;BME280;9959;49.798;9.928;2023-05-11T07:47:16;99429.63;;;13.06;81.78
19624;BME280;9959;49.798;9.928;2023-05-11T07:49:44;99430.31;;;12.90;81.72
19624;BME280;9959;49.798;9.928;2023-05-11T07:52:13;99423.50;;;12.99;83.47
19624;BME280;9959;49.798;9.928;2023-05-11T07:54:40;99426.50;;;12.68;84.77
19624;BME280;9959;49.798;9.928;2023-05-11T07:57:07;99434.00;;;12.66;84.56
19624;BME280;9959;49.798;9.928;2023-05-11T07:59:34;99433.28;;;13.00;86.03
19624;BME280;9959;49.798;9.928;2023-05-11T08:02:00;99430.31;;;12.90;84.54
19624;BME280;9959;49.798;9.928;2023-05-11T08:04:27;99425.16;;;13.00;83.75
19624;BME280;9959;49.798;9.928;2023-05-11T08:06:55;99419.94;;;12.75;84.89
19624;BME280;9959;49.798;9.928;2023-05-11T08:09:23;99426.94;;;13.06;86.63
19624;BME280;9959;49.798;9.928;2023-05-11T08:11:51;99424.94;;;13.13;86.74
19624;BME280;9959;49.798;9.928;2023-05-11T08:14:18;99425.84;;;12.96;86.88
19624;BME280;9959;49.798;9.928;2023-05-11T08:16:46;99424.06;;;12.89;85.92
19624;BME280;9959;49.798;9.928;2023-05-11T08:19:15;99424.94;;;13.02;87.10
19624;BME280;9959;49.798;9.928;2023-05-11T08:21:42;99427.06;;;13.11;87.57
19624;BME280;9959;49.798;9.928;2023-05-11T08:24:09;99426.09;;;12.94;88.28
19624;BME280;9959;49.798;9.928;2023-05-11T08:26:36;99427.72;;;12.95;88.35
19624;BME280;9959;49.798;9.928;2023-05-11T08:29:03;99429.59;;;12.83;89.05
19624;BME280;9959;49.798;9.928;2023-05-11T08:31:30;99436.56;;;13.14;88.53
19624;BME280;9959;49.798;9.928;2023-05-11T08:33:57;99430.09;;;13.03;88.06
19624;BME280;9959;49.798;9.928;2023-05-11T08:36:24;99438.09;;;12.98;88.45
19624;BME280;9959;49.798;9.928;2023-05-11T08:38:51;99434.00;;;13.07;88.43
19624;BME280;9959;49.798;9.928;2023-05-11T08:41:24;99434.31;;;12.99;86.95
19624;BME280;9959;49.798;9.928;2023-05-11T08:43:51;99434.50;;;13.28;87.70
19624;BME280;9959;49.798;9.928;2023-05-11T08:46:20;99424.34;;;13.70;86.71
19624;BME280;9959;49.798;9.928;2023-05-11T08:48:49;99423.19;;;13.77;85.98
19624;BME280;9959;49.798;9.928;2023-05-11T08:51:16;99436.16;;;13.52;84.59
19624;BME280;9959;49.798;9.928;2023-05-11T08:53:43;99438.41;;;13.67;85.78
19624;BME280;9959;49.798;9.928;2023-05-11T08:56:10;99436.03;;;13.24;86.54
19624;BME280;9959;49.798;9.928;2023-05-11T08:58:37;99435.56;;;13.27;86.11
19624;BME280;9959;49.798;9.928;2023-05-11T09:01:05;99432.25;;;13.71;85.92
19624;BME280;9959;49.798;9.928;2023-05-11T09:03:34;99435.09;;;13.53;84.72
19624;BME280;9959;49.798;9.928;2023-05-11T09:06:03;99428.72;;;13.82;86.56
19624;BME280;9959;49.798;9.928;2023-05-11T09:08:36;99433.22;;;13.65;86.06
19624;BME280;9959;49.798;9.928;2023-05-11T09:11:04;99436.25;;;13.80;85.48
19624;BME280;9959;49.798;9.928;2023-05-11T09:13:31;99434.50;;;13.51;85.83
19624;BME280;9959;49.798;9.928;2023-05-11T09:15:58;99434.28;;;13.64;85.50
19624;BME280;9959;49.798;9.928;2023-05-11T09:18:25;99431.53;;;13.87;84.81
19624;BME280;9959;49.798;9.928;2023-05-11T09:20:53;99430.94;;;13.74;86.07
19624;BME280;9959;49.798;9.928;2023-05-11T09:23:30;99432.25;;;13.71;85.39
19624;BME280;9959;49.798;9.928;2023-05-11T09:25:57;99430.94;;;14.66;84.84
19624;BME280;9959;49.798;9.928;2023-05-11T09:28:25;99424.75;;;14.13;84.86
19624;BME280;9959;49.798;9.928;2023-05-11T09:30:53;99415.34;;;14.89;85.79
19624;BME280;9959;49.798;9.928;2023-05-11T09:33:21;99426.88;;;14.51;83.55
19624;BME280;9959;49.798;9.928;2023-05-11T09:35:50;99427.41;;;14.65;84.76
19624;BME280;9959;49.798;9.928;2023-05-11T09:38:17;99434.22;;;14.28;83.78
19624;BME280;9959;49.798;9.928;2023-05-11T09:40:54;99423.78;;;14.60;84.28
19624;BME280;9959;49.798;9.928;2023-05-11T09:43:26;99421.19;;;14.98;82.47
19624;BME280;9959;49.798;9.928;2023-05-11T09:45:57;99423.16;;;15.19;82.51
19624;BME280;9959;49.798;9.928;2023-05-11T09:48:29;99426.28;;;15.11;82.51
19624;BME280;9959;49.798;9.928;2023-05-11T09:51:02;99421.19;;;15.15;83.37
19624;BME280;9959;49.798;9.928;2023-05-11T09:53:40;99417.75;;;15.19;83.79
19624;BME280;9959;49.798;9.928;2023-05-11T09:56:09;99410.94;;;15.00;82.72
19624;BME280;9959;49.798;9.928;2023-05-11T09:58:54;99411.13;;;15.66;81.76
19624;BME280;9959;49.798;9.928;2023-05-11T10:01:33;99421.16;;;14.81;81.55
19624;BME280;9959;49.798;9.928;2023-05-11T10:04:01;99412.31;;;14.86;84.15
19624;BME280;9959;49.798;9.928;2023-05-11T10:06:51;99418.00;;;15.01;83.36
19624;BME280;9959;49.798;9.928;2023-05-11T10:09:22;99408.53;;;14.87;82.22
19624;BME280;9959;49.798;9.928;2023-05-11T10:11:52;99416.91;;;14.69;84.22
19624;BME280;9959;49.798;9.928;2023-05-11T10:14:20;99404.75;;;15.05;83.71
19624;BME280;9959;49.798;9.928;2023-05-11T10:16:47;99404.03;;;15.81;82.03
19624;BME280;9959;49.798;9.928;2023-05-11T10:19:15;99404.91;;;15.32;83.17
19624;BME280;9959;49.798;9.928;2023-05-11T10:21:42;99401.97;;;15.00;83.16
19624;BME280;9959;49.798;9.928;2023-05-11T10:24:09;99405.91;;;14.92;85.36
19624;BME280;9959;49.798;9.928;2023-05-11T10:26:37;99399.66;;;14.75;84.26
19624;BME280;9959;49.798;9.928;2023-05-11T10:29:04;99402.94;;;14.77;83.85
19624;BME280;9959;49.798;9.928;2023-05-11T10:31:32;99403.78;;;14.94;83.63
19624;BME280;9959;49.798;9.928;2023-05-11T10:34:00;99396.94;;;14.75;84.76
19624;BME280;9959;49.798;9.928;2023-05-11T10:36:27;99397.00;;;14.80;86.29
19624;BME280;9959;49.798;9.928;2023-05-11T10:38:55;99395.25;;;14.57;86.11
19624;BME280;9959;49.798;9.928;2023-05-11T10:41:29;99395.16;;;14.52;86.76
19624;BME280;9959;49.798;9.928;2023-05-11T10:46:51;99392.13;;;14.48;84.87
19624;BME280;9959;49.798;9.928;2023-05-11T10:52:18;99383.88;;;14.72;85.76
19624;BME280;9959;49.798;9.928;2023-05-11T10:57:36;99387.66;;;14.14;88.90
19624;BME280;9959;49.798;9.928;2023-05-11T11:02:57;99390.75;;;14.34;89.13
19624;BME280;9959;49.798;9.928;2023-05-11T11:05:34;99392.13;;;14.48;88.57
19624;BME280;9959;49.798;9.928;2023-05-11T11:08:02;99394.28;;;14.35;89.69
19624;BME280;9959;49.798;9.928;2023-05-11T11:10:40;99389.56;;;14.02;89.62
19624;BME280;9959;49.798;9.928;2023-05-11T11:13:17;99390.25;;;14.09;89.10
19624;BME280;9959;49.798;9.928;2023-05-11T11:16:08;99388.41;;;14.26;90.40
19624;BME280;9959;49.798;9.928;2023-05-11T11:18:35;99390.50;;;13.96;90.83
19624;BME280;9959;49.798;9.928;2023-05-11T11:21:02;99389.84;;;13.88;91.54
19624;BME280;9959;49.798;9.928;2023-05-11T11:26:12;99393.19;;;14.07;92.18
19624;BME280;9959;49.798;9.928;2023-05-11T11:31:28;99382.56;;;14.17;90.37
19624;BME280;9959;49.798;9.928;2023-05-11T11:33:57;99385.75;;;14.14;91.54
19624;BME280;9959;49.798;9.928;2023-05-11T11:36:59;99384.25;;;14.64;89.36
19624;BME280;9959;49.798;9.928;2023-05-11T11:39:29;99388.59;;;14.48;88.37
19624;BME280;9959;49.798;9.928;2023-05-11T11:42:32;99392.22;;;14.53;90.28
19624;BME280;9959;49.798;9.928;2023-05-11T11:45:28;99387.44;;;14.44;90.05
19624;BME280;9959;49.798;9.928;2023-05-11T11:48:06;99385.66;;;14.49;89.73
19624;BME280;9959;49.798;9.928;2023-05-11T11:50:33;99380.75;;;14.23;91.15
19624;BME280;9959;49.798;9.928;2023-05-11T11:53:00;99387.25;;;13.94;90.97
19624;BME280;9959;49.798;9.928;2023-05-11T11:55:54;99388.13;;;14.11;90.77
19624;BME280;9959;49.798;9.928;2023-05-11T12:01:16;99386.63;;;14.43;93.85
19624;BME280;9959;49.798;9.928;2023-05-11T12:03:46;99388.66;;;14.24;91.63
19624;BME280;9959;49.798;9.928;2023-05-11T12:06:20;99389.81;;;14.29;91.88
19624;BME280;9959;49.798;9.928;2023-05-11T12:08:51;99380.00;;;14.68;91.66
19624;BME280;9959;49.798;9.928;2023-05-11T12:11:19;99381.03;;;14.50;89.28
19624;BME280;9959;49.798;9.928;2023-05-11T12:13:47;99386.69;;;14.77;88.85
19624;BME280;9959;49.798;9.928;2023-05-11T12:16:16;99382.63;;;14.63;88.42
19624;BME280;9959;49.798;9.928;2023-05-11T12:18:55;99382.47;;;14.86;88.56
19624;BME280;9959;49.798;9.928;2023-05-11T12:21:27;99381.25;;;14.77;85.85
19624;BME280;9959;49.798;9.928;2023-05-11T12:23:57;99386.00;;;15.20;82.83
19624;BME280;9959;49.798;9.928;2023-05-11T12:26:26;99380.50;;;15.15;87.00
19624;BME280;9959;49.798;9.928;2023-05-11T12:29:07;99380.72;;;15.13;85.00
19624;BME280;9959;49.798;9.928;2023-05-11T12:31:38;99383.31;;;15.03;84.25
19624;BME280;9959;49.798;9.928;2023-05-11T12:34:06;99373.91;;;15.11;88.31
19624;BME280;9959;49.798;9.928;2023-05-11T12:36:33;99379.69;;;15.53;85.69
19624;BME280;9959;49.798;9.928;2023-05-11T12:39:00;99369.88;;;15.30;86.48
19624;BME280;9959;49.798;9.928;2023-05-11T12:41:27;99377.19;;;14.63;88.23
19624;BME280;9959;49.798;9.928;2023-05-11T12:43:54;99372.94;;;14.67;86.80
19624;BME280;9959;49.798;9.928;2023-05-11T12:46:22;99376.38;;;14.62;88.08
19624;BME280;9959;49.798;9.928;2023-05-11T12:48:50;99371.09;;;14.55;87.94
19624;BME280;9959;49.798;9.928;2023-05-11T12:56:55;99373.53;;;14.40;92.05
19624;BME280;9959;49.798;9.928;2023-05-11T13:02:17;99372.56;;;14.18;92.51
19624;BME280;9959;49.798;9.928;2023-05-11T13:04:45;99370.81;;;14.40;93.08
19624;BME280;9959;49.798;9.928;2023-05-11T13:07:13;99365.84;;;14.20;90.48
19624;BME280;9959;49.798;9.928;2023-05-11T13:09:56;99365.19;;;14.02;92.35
19624;BME280;9959;49.798;9.928;2023-05-11T13:12:23;99369.03;;;13.77;92.39
19624;BME280;9959;49.798;9.928;2023-05-11T13:15:06;99364.47;;;13.66;95.54
19624;BME280;9959;49.798;9.928;2023-05-11T13:17:37;99366.59;;;13.64;94.33
19624;BME280;9959;49.798;9.928;2023-05-11T13:22:46;99361.19;;;13.64;94.87
19624;BME280;9959;49.798;9.928;2023-05-11T13:25:14;99359.44;;;13.46;96.63
19624;BME280;9959;49.798;9.928;2023-05-11T13:27:42;99357.66;;;13.64;99.13
19624;BME280;9959;49.798;9.928;2023-05-11T13:30:09;99362.59;;;13.55;98.84
19624;BME280;9959;49.798;9.928;2023-05-11T13:32:37;99361.91;;;13.48;98.25
19624;BME280;9959;49.798;9.928;2023-05-11T13:35:05;99370.97;;;13.42;100.00
19624;BME280;9959;49.798;9.928;2023-05-11T13:37:32;99364.41;;;13.38;99.69
19624;BME280;9959;49.798;9.928;2023-05-11T13:39:59;99357.31;;;13.13;97.63
19624;BME280;9959;49.798;9.928;2023-05-11T13:42:26;99361.22;;;13.17;99.99
19624;BME280;9959;49.798;9.928;2023-05-11T13:44:54;99351.81;;;13.32;100.00
19624;BME280;9959;49.798;9.928;2023-05-11T13:47:20;99362.28;;;13.16;99.28
19624;BME280;9959;49.798;9.928;2023-05-11T13:49:47;99358.41;;;13.12;100.00
19624;BME280;9959;49.798;9.928;2023-05-11T13:52:14;99357.94;;;13.15;100.00
19624;BME280;9959;49.798;9.928;2023-05-11T13:54:41;99354.28;;;13.21;100.00